sensor_id;sensor_type;location;lat;lon;timestamp;pressure;altitude;pressure_sealevel;temperature
19568;BMP280;9930;49.240;8.548;2023-04-15T00:00:29;99548.34;;;10.85
19568;BMP280;9930;49.240;8.548;2023-04-15T00:02:58;99564.59;;;10.89
19568;BMP280;9930;49.240;8.548;2023-04-15T00:05:28;99572.22;;;10.89
19568;BMP280;9930;49.240;8.548;2023-04-15T00:07:59;99567.91;;;10.86
19568;BMP280;9930;49.240;8.548;2023-04-15T00:10:28;99565.25;;;10.82
19568;BMP280;9930;49.240;8.548;2023-04-15T00:12:55;99573.78;;;10.82
19568;BMP280;9930;49.240;8.548;2023-04-15T00:15:23;99566.06;;;10.79
19568;BMP280;9930;49.240;8.548;2023-04-15T00:17:50;99560.78;;;10.71
19568;BMP280;9930;49.240;8.548;2023-04-15T00:20:18;99562.50;;;10.73
19568;BMP280;9930;49.240;8.548;2023-04-15T00:22:44;99553.81;;;10.64
19568;BMP280;9930;49.240;8.548;2023-04-15T00:25:09;99549.50;;;10.62
19568;BMP280;9930;49.240;8.548;2023-04-15T00:27:35;99564.00;;;10.64
19568;BMP280;9930;49.240;8.548;2023-04-15T00:30:01;99547.63;;;10.55
19568;BMP280;9930;49.240;8.548;2023-04-15T00:32:29;99560.50;;;10.59
19568;BMP280;9930;49.240;8.548;2023-04-15T00:35:02;99543.25;;;10.49
19568;BMP280;9930;49.240;8.548;2023-04-15T00:37:32;99538.03;;;10.45
19568;BMP280;9930;49.240;8.548;2023-04-15T00:40:02;99556.91;;;10.51
19568;BMP280;9930;49.240;8.548;2023-04-15T00:42:31;99537.97;;;10.40
19568;BMP280;9930;49.240;8.548;2023-04-15T00:44:59;99548.31;;;10.48
19568;BMP280;9930;49.240;8.548;2023-04-15T00:47:28;99553.25;;;10.42
19568;BMP280;9930;49.240;8.548;2023-04-15T00:49:56;99538.75;;;10.37
19568;BMP280;9930;49.240;8.548;2023-04-15T00:52:22;99557.50;;;10.41
19568;BMP280;9930;49.240;8.548;2023-04-15T00:54:48;99565.16;;;10.41
19568;BMP280;9930;49.240;8.548;2023-04-15T00:57:19;99561.72;;;10.39
19568;BMP280;9930;49.240;8.548;2023-04-15T00:59:52;99565.09;;;10.38
19568;BMP280;9930;49.240;8.548;2023-04-15T01:02:18;99545.31;;;10.28
19568;BMP280;9930;49.240;8.548;2023-04-15T01:04:44;99546.09;;;10.25
19568;BMP280;9930;49.240;8.548;2023-04-15T01:07:10;99546.88;;;10.23
19568;BMP280;9930;49.240;8.548;2023-04-15T01:09:35;99548.53;;;10.21
19568;BMP280;9930;49.240;8.548;2023-04-15T01:12:08;99557.19;;;10.27
19568;BMP280;9930;49.240;8.548;2023-04-15T01:14:35;99552.78;;;10.20
19568;BMP280;9930;49.240;8.548;2023-04-15T01:17:00;99557.91;;;10.22
19568;BMP280;9930;49.240;8.548;2023-04-15T01:19:28;99554.44;;;10.20
19568;BMP280;9930;49.240;8.548;2023-04-15T01:21:58;99557.78;;;10.19
19568;BMP280;9930;49.240;8.548;2023-04-15T01:24:28;99549.16;;;10.14
19568;BMP280;9930;49.240;8.548;2023-04-15T01:26:57;99548.97;;;10.06
19568;BMP280;9930;49.240;8.548;2023-04-15T01:29:25;99555.84;;;10.09
19568;BMP280;9930;49.240;8.548;2023-04-15T01:31:55;99548.06;;;10.04
19568;BMP280;9930;49.240;8.548;2023-04-15T01:34:22;99561.75;;;10.07
19568;BMP280;9930;49.240;8.548;2023-04-15T01:36:48;99556.63;;;10.06
19568;BMP280;9930;49.240;8.548;2023-04-15T01:39:16;99539.38;;;9.96
19568;BMP280;9930;49.240;8.548;2023-04-15T01:41:44;99551.38;;;10.00
19568;BMP280;9930;49.240;8.548;2023-04-15T01:44:12;99554.72;;;9.99
19568;BMP280;9930;49.240;8.548;2023-04-15T01:46:38;99557.25;;;9.97
19568;BMP280;9930;49.240;8.548;2023-04-15T01:49:06;99553.78;;;9.95
19568;BMP280;9930;49.240;8.548;2023-04-15T01:51:32;99539.09;;;9.85
19568;BMP280;9930;49.240;8.548;2023-04-15T01:53:57;99544.31;;;9.90
19568;BMP280;9930;49.240;8.548;2023-04-15T01:56:24;99549.25;;;9.84
19568;BMP280;9930;49.240;8.548;2023-04-15T01:58:52;99544.03;;;9.79
19568;BMP280;9930;49.240;8.548;2023-04-15T02:01:21;99548.34;;;9.82
19568;BMP280;9930;49.240;8.548;2023-04-15T02:03:47;99543.97;;;9.78
19568;BMP280;9930;49.240;8.548;2023-04-15T02:06:12;99543.06;;;9.76
19568;BMP280;9930;49.240;8.548;2023-04-15T02:08:38;99555.03;;;9.78
19568;BMP280;9930;49.240;8.548;2023-04-15T02:11:04;99538.72;;;9.71
19568;BMP280;9930;49.240;8.548;2023-04-15T02:13:32;99551.53;;;9.74
19568;BMP280;9930;49.240;8.548;2023-04-15T02:15:58;99545.34;;;9.65
19568;BMP280;9930;49.240;8.548;2023-04-15T02:18:24;99557.38;;;9.70
19568;BMP280;9930;49.240;8.548;2023-04-15T02:20:53;99544.44;;;9.63
19568;BMP280;9930;49.240;8.548;2023-04-15T02:23:23;99559.78;;;9.66
19568;BMP280;9930;49.240;8.548;2023-04-15T02:25:48;99551.13;;;9.59
19568;BMP280;9930;49.240;8.548;2023-04-15T02:28:16;99552.69;;;9.54
19568;BMP280;9930;49.240;8.548;2023-04-15T02:30:45;99551.81;;;9.54
19568;BMP280;9930;49.240;8.548;2023-04-15T02:33:17;99548.31;;;9.50
19568;BMP280;9930;49.240;8.548;2023-04-15T02:35:43;99553.44;;;9.52
19568;BMP280;9930;49.240;8.548;2023-04-15T02:38:10;99561.09;;;9.52
19568;BMP280;9930;49.240;8.548;2023-04-15T02:40:36;99549.00;;;9.45
19568;BMP280;9930;49.240;8.548;2023-04-15T02:43:02;99554.09;;;9.45
19568;BMP280;9930;49.240;8.548;2023-04-15T02:45:29;99544.53;;;9.36
19568;BMP280;9930;49.240;8.548;2023-04-15T02:47:58;99544.47;;;9.34
19568;BMP280;9930;49.240;8.548;2023-04-15T02:50:26;99555.66;;;9.39
19568;BMP280;9930;49.240;8.548;2023-04-15T02:52:53;99544.34;;;9.30
19568;BMP280;9930;49.240;8.548;2023-04-15T02:55:21;99551.25;;;9.34
19568;BMP280;9930;49.240;8.548;2023-04-15T02:57:47;99550.34;;;9.32
19568;BMP280;9930;49.240;8.548;2023-04-15T03:00:18;99551.13;;;9.29
19568;BMP280;9930;49.240;8.548;2023-04-15T03:02:45;99548.50;;;9.26
19568;BMP280;9930;49.240;8.548;2023-04-15T03:05:13;99539.78;;;9.18
19568;BMP280;9930;49.240;8.548;2023-04-15T03:07:43;99550.91;;;9.22
19568;BMP280;9930;49.240;8.548;2023-04-15T03:10:09;99556.81;;;9.21
19568;BMP280;9930;49.240;8.548;2023-04-15T03:12:35;99554.22;;;9.19
19568;BMP280;9930;49.240;8.548;2023-04-15T03:15:01;99543.78;;;9.10
19568;BMP280;9930;49.240;8.548;2023-04-15T03:17:29;99553.25;;;9.16
19568;BMP280;9930;49.240;8.548;2023-04-15T03:19:57;99562.47;;;9.12
19568;BMP280;9930;49.240;8.548;2023-04-15T03:22:22;99564.22;;;9.13
19568;BMP280;9930;49.240;8.548;2023-04-15T03:24:48;99558.16;;;9.09
19568;BMP280;9930;49.240;8.548;2023-04-15T03:27:14;99559.84;;;9.09
19568;BMP280;9930;49.240;8.548;2023-04-15T03:29:42;99563.13;;;9.05
19568;BMP280;9930;49.240;8.548;2023-04-15T03:32:08;99565.66;;;9.05
19568;BMP280;9930;49.240;8.548;2023-04-15T03:34:37;99569.84;;;9.03
19568;BMP280;9930;49.240;8.548;2023-04-15T03:37:03;99556.03;;;8.95
19568;BMP280;9930;49.240;8.548;2023-04-15T03:39:31;99567.25;;;9.01
19568;BMP280;9930;49.240;8.548;2023-04-15T03:41:57;99573.19;;;9.02
19568;BMP280;9930;49.240;8.548;2023-04-15T03:44:27;99567.13;;;8.97
19568;BMP280;9930;49.240;8.548;2023-04-15T03:46:55;99572.34;;;9.01
19568;BMP280;9930;49.240;8.548;2023-04-15T03:49:21;99562.72;;;8.91
19568;BMP280;9930;49.240;8.548;2023-04-15T03:51:50;99564.44;;;8.92
19568;BMP280;9930;49.240;8.548;2023-04-15T03:54:20;99581.59;;;8.99
19568;BMP280;9930;49.240;8.548;2023-04-15T03:56:46;99567.94;;;8.96
19568;BMP280;9930;49.240;8.548;2023-04-15T03:59:16;99556.63;;;8.86
19568;BMP280;9930;49.240;8.548;2023-04-15T04:01:44;99555.69;;;8.84
19568;BMP280;9930;49.240;8.548;2023-04-15T04:04:10;99567.75;;;8.90
19568;BMP280;9930;49.240;8.548;2023-04-15T04:06:38;99571.91;;;8.88
19568;BMP280;9930;49.240;8.548;2023-04-15T04:09:04;99558.94;;;8.79
19568;BMP280;9930;49.240;8.548;2023-04-15T04:11:31;99571.81;;;8.85
19568;BMP280;9930;49.240;8.548;2023-04-15T04:13:57;99569.94;;;8.79
19568;BMP280;9930;49.240;8.548;2023-04-15T04:16:26;99560.66;;;8.80
19568;BMP280;9930;49.240;8.548;2023-04-15T04:18:54;99564.78;;;8.76
19568;BMP280;9930;49.240;8.548;2023-04-15T04:21:20;99576.75;;;8.80
19568;BMP280;9930;49.240;8.548;2023-04-15T04:23:46;99560.47;;;8.73
19568;BMP280;9930;49.240;8.548;2023-04-15T04:26:12;99574.06;;;8.75
19568;BMP280;9930;49.240;8.548;2023-04-15T04:28:37;99562.00;;;8.68
19568;BMP280;9930;49.240;8.548;2023-04-15T04:31:06;99575.84;;;8.78
19568;BMP280;9930;49.240;8.548;2023-04-15T04:33:32;99585.16;;;8.77
19568;BMP280;9930;49.240;8.548;2023-04-15T04:35:58;99581.75;;;8.77
19568;BMP280;9930;49.240;8.548;2023-04-15T04:38:24;99569.72;;;8.71
19568;BMP280;9930;49.240;8.548;2023-04-15T04:40:53;99574.94;;;8.76
19568;BMP280;9930;49.240;8.548;2023-04-15T04:43:21;99584.25;;;8.75
19568;BMP280;9930;49.240;8.548;2023-04-15T04:45:46;99577.44;;;8.74
19568;BMP280;9930;49.240;8.548;2023-04-15T04:48:12;99568.75;;;8.68
19568;BMP280;9930;49.240;8.548;2023-04-15T04:50:40;99588.41;;;8.73
19568;BMP280;9930;49.240;8.548;2023-04-15T04:53:06;99576.38;;;8.68
19568;BMP280;9930;49.240;8.548;2023-04-15T04:55:34;99589.28;;;8.74
19568;BMP280;9930;49.240;8.548;2023-04-15T04:58:04;99582.38;;;8.70
19568;BMP280;9930;49.240;8.548;2023-04-15T05:00:32;99594.41;;;8.75
19568;BMP280;9930;49.240;8.548;2023-04-15T05:03:00;99591.06;;;8.76
19568;BMP280;9930;49.240;8.548;2023-04-15T05:05:26;99578.97;;;8.69
19568;BMP280;9930;49.240;8.548;2023-04-15T05:07:52;99599.59;;;8.79
19568;BMP280;9930;49.240;8.548;2023-04-15T05:10:17;99597.88;;;8.77
19568;BMP280;9930;49.240;8.548;2023-04-15T05:12:43;99586.69;;;8.72
19568;BMP280;9930;49.240;8.548;2023-04-15T05:15:13;99585.88;;;8.73
19568;BMP280;9930;49.240;8.548;2023-04-15T05:17:41;99597.09;;;8.80
19568;BMP280;9930;49.240;8.548;2023-04-15T05:20:12;99607.38;;;8.83
19568;BMP280;9930;49.240;8.548;2023-04-15T05:22:40;99596.97;;;8.75
19568;BMP280;9930;49.240;8.548;2023-04-15T05:25:09;99597.88;;;8.77
19568;BMP280;9930;49.240;8.548;2023-04-15T05:27:34;99597.88;;;8.77
19568;BMP280;9930;49.240;8.548;2023-04-15T05:30:02;99598.72;;;8.78
19568;BMP280;9930;49.240;8.548;2023-04-15T05:32:28;99609.19;;;8.87
19568;BMP280;9930;49.240;8.548;2023-04-15T05:34:54;99595.53;;;8.84
19568;BMP280;9930;49.240;8.548;2023-04-15T05:37:28;99611.88;;;8.92
19568;BMP280;9930;49.240;8.548;2023-04-15T05:39:57;99614.50;;;8.95
19568;BMP280;9930;49.240;8.548;2023-04-15T05:42:23;99600.78;;;8.90
19568;BMP280;9930;49.240;8.548;2023-04-15T05:44:48;99607.84;;;8.98
19568;BMP280;9930;49.240;8.548;2023-04-15T05:47:14;99615.63;;;9.03
19568;BMP280;9930;49.240;8.548;2023-04-15T05:49:42;99612.34;;;9.07
19568;BMP280;9930;49.240;8.548;2023-04-15T05:52:10;99600.34;;;9.03
19568;BMP280;9930;49.240;8.548;2023-04-15T05:54:36;99617.72;;;9.16
19568;BMP280;9930;49.240;8.548;2023-04-15T05:57:02;99605.03;;;9.18
19568;BMP280;9930;49.240;8.548;2023-04-15T05:59:28;99605.13;;;9.21
19568;BMP280;9930;49.240;8.548;2023-04-15T06:01:56;99620.00;;;9.35
19568;BMP280;9930;49.240;8.548;2023-04-15T06:04:26;99618.38;;;9.37
19568;BMP280;9930;49.240;8.548;2023-04-15T06:06:54;99628.84;;;9.48
19568;BMP280;9930;49.240;8.548;2023-04-15T06:09:20;99616.31;;;9.54
19568;BMP280;9930;49.240;8.548;2023-04-15T06:11:46;99618.81;;;9.83
19568;BMP280;9930;49.240;8.548;2023-04-15T06:14:11;99617.97;;;10.14
19568;BMP280;9930;49.240;8.548;2023-04-15T06:16:39;99625.69;;;10.50
19568;BMP280;9930;49.240;8.548;2023-04-15T06:19:07;99602.66;;;10.81
19568;BMP280;9930;49.240;8.548;2023-04-15T06:21:37;99618.19;;;11.28
19568;BMP280;9930;49.240;8.548;2023-04-15T06:24:03;99616.44;;;11.66
19568;BMP280;9930;49.240;8.548;2023-04-15T06:26:28;99625.00;;;12.10
19568;BMP280;9930;49.240;8.548;2023-04-15T06:28:58;99619.66;;;12.45
19568;BMP280;9930;49.240;8.548;2023-04-15T06:31:26;99632.25;;;12.84
19568;BMP280;9930;49.240;8.548;2023-04-15T06:33:52;99630.97;;;13.10
19568;BMP280;9930;49.240;8.548;2023-04-15T06:36:20;99618.38;;;13.24
19568;BMP280;9930;49.240;8.548;2023-04-15T06:38:46;99628.03;;;13.42
19568;BMP280;9930;49.240;8.548;2023-04-15T06:41:12;99632.47;;;13.55
19568;BMP280;9930;49.240;8.548;2023-04-15T06:43:42;99635.13;;;13.61
19568;BMP280;9930;49.240;8.548;2023-04-15T06:46:10;99623.09;;;13.55
19568;BMP280;9930;49.240;8.548;2023-04-15T06:48:36;99637.75;;;13.66
19568;BMP280;9930;49.240;8.548;2023-04-15T06:51:04;99626.59;;;13.64
19568;BMP280;9930;49.240;8.548;2023-04-15T06:53:30;99632.66;;;13.69
19568;BMP280;9930;49.240;8.548;2023-04-15T06:55:58;99631.88;;;13.76
19568;BMP280;9930;49.240;8.548;2023-04-15T06:58:25;99624.19;;;13.74
19568;BMP280;9930;49.240;8.548;2023-04-15T07:00:59;99619.94;;;13.76
19568;BMP280;9930;49.240;8.548;2023-04-15T07:03:27;99622.56;;;13.82
19568;BMP280;9930;49.240;8.548;2023-04-15T07:05:53;99633.75;;;13.89
19568;BMP280;9930;49.240;8.548;2023-04-15T07:08:22;99623.47;;;13.87
19568;BMP280;9930;49.240;8.548;2023-04-15T07:10:53;99632.19;;;14.02
19568;BMP280;9930;49.240;8.548;2023-04-15T07:13:19;99621.91;;;14.00
19568;BMP280;9930;49.240;8.548;2023-04-15T07:15:45;99615.13;;;14.05
19568;BMP280;9930;49.240;8.548;2023-04-15T07:18:10;99628.94;;;14.18
19568;BMP280;9930;49.240;8.548;2023-04-15T07:20:37;99624.75;;;14.24
19568;BMP280;9930;49.240;8.548;2023-04-15T07:23:03;99623.94;;;14.30
19568;BMP280;9930;49.240;8.548;2023-04-15T07:25:31;99623.16;;;14.37
19568;BMP280;9930;49.240;8.548;2023-04-15T07:27:58;99613.88;;;14.48
19568;BMP280;9930;49.240;8.548;2023-04-15T07:30:29;99620.00;;;14.64
19568;BMP280;9930;49.240;8.548;2023-04-15T07:32:55;99612.44;;;14.81
19568;BMP280;9930;49.240;8.548;2023-04-15T07:35:21;99608.28;;;14.97
19568;BMP280;9930;49.240;8.548;2023-04-15T07:37:47;99599.81;;;15.08
19568;BMP280;9930;49.240;8.548;2023-04-15T07:40:15;99608.50;;;15.29
19568;BMP280;9930;49.240;8.548;2023-04-15T07:42:41;99614.59;;;15.49
19568;BMP280;9930;49.240;8.548;2023-04-15T07:45:08;99607.81;;;15.59
19568;BMP280;9930;49.240;8.548;2023-04-15T07:47:36;99598.38;;;15.64
19568;BMP280;9930;49.240;8.548;2023-04-15T07:50:02;99609.56;;;15.75
19568;BMP280;9930;49.240;8.548;2023-04-15T07:52:31;99613.84;;;15.77
19568;BMP280;9930;49.240;8.548;2023-04-15T07:54:59;99613.00;;;15.78
19568;BMP280;9930;49.240;8.548;2023-04-15T07:57:25;99617.28;;;15.79
19568;BMP280;9930;49.240;8.548;2023-04-15T07:59:50;99601.84;;;15.75
19568;BMP280;9930;49.240;8.548;2023-04-15T08:02:16;99607.84;;;15.75
19568;BMP280;9930;49.240;8.548;2023-04-15T08:04:42;99617.31;;;15.82
19568;BMP280;9930;49.240;8.548;2023-04-15T08:07:08;99614.75;;;15.84
19568;BMP280;9930;49.240;8.548;2023-04-15T08:09:34;99602.72;;;15.81
19568;BMP280;9930;49.240;8.548;2023-04-15T08:12:05;99603.63;;;15.93
19568;BMP280;9930;49.240;8.548;2023-04-15T08:14:32;99613.97;;;16.08
19568;BMP280;9930;49.240;8.548;2023-04-15T08:17:00;99612.25;;;16.19
19568;BMP280;9930;49.240;8.548;2023-04-15T08:19:26;99616.56;;;16.28
19568;BMP280;9930;49.240;8.548;2023-04-15T08:21:54;99618.28;;;16.32
19568;BMP280;9930;49.240;8.548;2023-04-15T08:24:23;99602.84;;;16.35
19568;BMP280;9930;49.240;8.548;2023-04-15T08:26:51;99622.59;;;16.43
19568;BMP280;9930;49.240;8.548;2023-04-15T08:29:17;99622.59;;;16.45
19568;BMP280;9930;49.240;8.548;2023-04-15T08:31:44;99621.75;;;16.44
19568;BMP280;9930;49.240;8.548;2023-04-15T08:34:15;99617.44;;;16.40
19568;BMP280;9930;49.240;8.548;2023-04-15T08:36:46;99622.59;;;16.43
19568;BMP280;9930;49.240;8.548;2023-04-15T08:39:11;99611.44;;;16.38
19568;BMP280;9930;49.240;8.548;2023-04-15T08:41:46;99589.97;;;16.30
19568;BMP280;9930;49.240;8.548;2023-04-15T08:44:13;99626.91;;;16.57
19568;BMP280;9930;49.240;8.548;2023-04-15T08:46:41;99614.03;;;16.53
19568;BMP280;9930;49.240;8.548;2023-04-15T08:49:14;99627.81;;;16.68
19568;BMP280;9930;49.240;8.548;2023-04-15T08:51:40;99616.59;;;16.64
19568;BMP280;9930;49.240;8.548;2023-04-15T08:54:10;99634.66;;;16.75
19568;BMP280;9930;49.240;8.548;2023-04-15T08:56:38;99640.69;;;16.81
19568;BMP280;9930;49.240;8.548;2023-04-15T08:59:05;99627.81;;;16.80
19568;BMP280;9930;49.240;8.548;2023-04-15T09:01:31;99634.66;;;16.90
19568;BMP280;9930;49.240;8.548;2023-04-15T09:03:58;99636.38;;;17.00
19568;BMP280;9930;49.240;8.548;2023-04-15T09:06:28;99634.66;;;17.05
19568;BMP280;9930;49.240;8.548;2023-04-15T09:08:55;99633.78;;;17.09
19568;BMP280;9930;49.240;8.548;2023-04-15T09:11:21;99632.94;;;17.10
19568;BMP280;9930;49.240;8.548;2023-04-15T09:13:50;99638.94;;;17.17
19568;BMP280;9930;49.240;8.548;2023-04-15T09:16:16;99625.19;;;17.15
19568;BMP280;9930;49.240;8.548;2023-04-15T09:18:43;99643.22;;;17.26
19568;BMP280;9930;49.240;8.548;2023-04-15T09:21:13;99651.81;;;17.29
19568;BMP280;9930;49.240;8.548;2023-04-15T09:23:58;99642.34;;;17.24
19568;BMP280;9930;49.240;8.548;2023-04-15T09:26:37;99642.34;;;17.27
19568;BMP280;9930;49.240;8.548;2023-04-15T09:29:07;99647.50;;;17.33
19568;BMP280;9930;49.240;8.548;2023-04-15T09:31:36;99636.31;;;17.34
19568;BMP280;9930;49.240;8.548;2023-04-15T09:34:02;99657.78;;;17.48
19568;BMP280;9930;49.240;8.548;2023-04-15T09:39:15;99650.00;;;17.66
19568;BMP280;9930;49.240;8.548;2023-04-15T09:41:42;99644.84;;;17.66
19568;BMP280;9930;49.240;8.548;2023-04-15T09:44:26;99644.81;;;17.75
19568;BMP280;9930;49.240;8.548;2023-04-15T09:46:51;99660.22;;;17.95
19568;BMP280;9930;49.240;8.548;2023-04-15T09:49:17;99647.31;;;17.98
19568;BMP280;9930;49.240;8.548;2023-04-15T09:51:46;99668.72;;;18.17
19568;BMP280;9930;49.240;8.548;2023-04-15T09:54:20;99655.81;;;18.17
19568;BMP280;9930;49.240;8.548;2023-04-15T09:56:48;99673.81;;;18.29
19568;BMP280;9930;49.240;8.548;2023-04-15T09:59:14;99668.63;;;18.34
19568;BMP280;9930;49.240;8.548;2023-04-15T10:01:44;99676.34;;;18.37
19568;BMP280;9930;49.240;8.548;2023-04-15T10:04:10;99671.19;;;18.38
19568;BMP280;9930;49.240;8.548;2023-04-15T10:06:39;99669.41;;;18.45
19568;BMP280;9930;49.240;8.548;2023-04-15T10:09:05;99671.94;;;18.53
19568;BMP280;9930;49.240;8.548;2023-04-15T10:11:33;99675.34;;;18.59
19568;BMP280;9930;49.240;8.548;2023-04-15T10:14:00;99679.63;;;18.68
19568;BMP280;9930;49.240;8.548;2023-04-15T10:16:35;99675.22;;;18.81
19568;BMP280;9930;49.240;8.548;2023-04-15T10:19:06;99672.63;;;18.84
19568;BMP280;9930;49.240;8.548;2023-04-15T10:21:36;99679.44;;;18.92
19568;BMP280;9930;49.240;8.548;2023-04-15T10:24:02;99670.81;;;18.95
19568;BMP280;9930;49.240;8.548;2023-04-15T10:26:29;99663.88;;;19.00
19568;BMP280;9930;49.240;8.548;2023-04-15T10:28:57;99683.56;;;19.16
19568;BMP280;9930;49.240;8.548;2023-04-15T10:31:24;99672.41;;;19.08
19568;BMP280;9930;49.240;8.548;2023-04-15T10:33:52;99687.03;;;19.14
19568;BMP280;9930;49.240;8.548;2023-04-15T10:36:19;99677.53;;;19.14
19568;BMP280;9930;49.240;8.548;2023-04-15T10:38:45;99689.56;;;19.17
19568;BMP280;9930;49.240;8.548;2023-04-15T10:41:23;99691.31;;;19.16
19568;BMP280;9930;49.240;8.548;2023-04-15T10:43:53;99695.59;;;19.19
19568;BMP280;9930;49.240;8.548;2023-04-15T10:46:33;99690.47;;;19.13
19568;BMP280;9930;49.240;8.548;2023-04-15T10:49:14;99683.53;;;19.19
19568;BMP280;9930;49.240;8.548;2023-04-15T10:51:50;99686.94;;;19.21
19568;BMP280;9930;49.240;8.548;2023-04-15T10:54:31;99701.50;;;19.31
19568;BMP280;9930;49.240;8.548;2023-04-15T11:02:05;99701.31;;;19.51
19568;BMP280;9930;49.240;8.548;2023-04-15T11:04:54;99698.69;;;19.59
19568;BMP280;9930;49.240;8.548;2023-04-15T11:12:58;99706.34;;;19.68
19568;BMP280;9930;49.240;8.548;2023-04-15T11:18:27;99703.66;;;19.77
19568;BMP280;9930;49.240;8.548;2023-04-15T11:21:01;99702.78;;;19.78
19568;BMP280;9930;49.240;8.548;2023-04-15T11:23:39;99704.50;;;19.79
19568;BMP280;9930;49.240;8.548;2023-04-15T11:26:09;99701.06;;;19.79
19568;BMP280;9930;49.240;8.548;2023-04-15T11:28:39;99701.06;;;19.79
19568;BMP280;9930;49.240;8.548;2023-04-15T11:31:10;99697.63;;;19.78
19568;BMP280;9930;49.240;8.548;2023-04-15T11:33:46;99707.09;;;19.79
19568;BMP280;9930;49.240;8.548;2023-04-15T11:36:17;99698.53;;;19.74
19568;BMP280;9930;49.240;8.548;2023-04-15T11:38:46;99700.28;;;19.72
19568;BMP280;9930;49.240;8.548;2023-04-15T11:41:12;99704.47;;;19.82
19568;BMP280;9930;49.240;8.548;2023-04-15T11:43:38;99704.47;;;19.82
19568;BMP280;9930;49.240;8.548;2023-04-15T11:46:06;99701.00;;;19.83
19568;BMP280;9930;49.240;8.548;2023-04-15T11:48:40;99714.69;;;19.94
19568;BMP280;9930;49.240;8.548;2023-04-15T11:51:06;99703.44;;;19.95
19568;BMP280;9930;49.240;8.548;2023-04-15T11:53:48;99723.13;;;20.10
19568;BMP280;9930;49.240;8.548;2023-04-15T11:56:25;99711.88;;;20.11
19568;BMP280;9930;49.240;8.548;2023-04-15T11:58:53;99723.84;;;20.20
19568;BMP280;9930;49.240;8.548;2023-04-15T12:01:40;99709.28;;;20.11
19568;BMP280;9930;49.240;8.548;2023-04-15T12:04:18;99727.22;;;20.28
19568;BMP280;9930;49.240;8.548;2023-04-15T12:06:51;99736.66;;;20.30
19568;BMP280;9930;49.240;8.548;2023-04-15T12:09:19;99725.53;;;20.24
19568;BMP280;9930;49.240;8.548;2023-04-15T12:11:47;99738.38;;;20.31
19568;BMP280;9930;49.240;8.548;2023-04-15T12:17:04;99752.44;;;20.11
19568;BMP280;9930;49.240;8.548;2023-04-15T12:19:38;99755.09;;;20.04
19568;BMP280;9930;49.240;8.548;2023-04-15T12:22:16;99767.19;;;20.05
19568;BMP280;9930;49.240;8.548;2023-04-15T12:24:44;99764.63;;;20.02
19568;BMP280;9930;49.240;8.548;2023-04-15T12:27:15;99754.31;;;19.98
19568;BMP280;9930;49.240;8.548;2023-04-15T12:29:43;99777.44;;;20.13
19568;BMP280;9930;49.240;8.548;2023-04-15T12:32:13;99780.00;;;20.16
19568;BMP280;9930;49.240;8.548;2023-04-15T12:37:10;99767.31;;;19.93
19568;BMP280;9930;49.240;8.548;2023-04-15T12:39:40;99792.28;;;19.99
19568;BMP280;9930;49.240;8.548;2023-04-15T12:42:10;99793.25;;;19.89
19568;BMP280;9930;49.240;8.548;2023-04-15T12:44:38;99791.63;;;19.79
19568;BMP280;9930;49.240;8.548;2023-04-15T12:47:04;99799.44;;;19.72
19568;BMP280;9930;49.240;8.548;2023-04-15T12:49:30;99796.06;;;19.64
19568;BMP280;9930;49.240;8.548;2023-04-15T12:51:59;99791.88;;;19.48
19568;BMP280;9930;49.240;8.548;2023-04-15T12:54:30;99791.06;;;19.41
19568;BMP280;9930;49.240;8.548;2023-04-15T12:56:58;99810.00;;;19.44
19568;BMP280;9930;49.240;8.548;2023-04-15T12:59:27;99798.91;;;19.31
19568;BMP280;9930;49.240;8.548;2023-04-15T13:01:53;99798.91;;;19.31
19568;BMP280;9930;49.240;8.548;2023-04-15T13:04:24;99799.00;;;19.19
19568;BMP280;9930;49.240;8.548;2023-04-15T13:06:50;99799.94;;;19.08
19568;BMP280;9930;49.240;8.548;2023-04-15T13:09:15;99797.38;;;19.01
19568;BMP280;9930;49.240;8.548;2023-04-15T13:11:43;99811.16;;;19.03
19568;BMP280;9930;49.240;8.548;2023-04-15T13:14:09;99814.63;;;19.00
19568;BMP280;9930;49.240;8.548;2023-04-15T13:16:38;99817.25;;;18.94
19568;BMP280;9930;49.240;8.548;2023-04-15T13:19:04;99813.88;;;18.83
19568;BMP280;9930;49.240;8.548;2023-04-15T13:21:34;99820.78;;;18.80
19568;BMP280;9930;49.240;8.548;2023-04-15T13:24:00;99812.19;;;18.74
19568;BMP280;9930;49.240;8.548;2023-04-15T13:26:26;99813.09;;;18.66
19568;BMP280;9930;49.240;8.548;2023-04-15T13:28:52;99813.94;;;18.68
19568;BMP280;9930;49.240;8.548;2023-04-15T13:31:18;99825.16;;;18.67
19568;BMP280;9930;49.240;8.548;2023-04-15T13:33:44;99828.59;;;18.64
19568;BMP280;9930;49.240;8.548;2023-04-15T13:36:12;99825.16;;;18.59
19568;BMP280;9930;49.240;8.548;2023-04-15T13:38:38;99822.56;;;18.56
19568;BMP280;9930;49.240;8.548;2023-04-15T13:41:03;99834.63;;;18.57
19568;BMP280;9930;49.240;8.548;2023-04-15T13:43:31;99836.34;;;18.57
19568;BMP280;9930;49.240;8.548;2023-04-15T13:46:00;99831.16;;;18.60
19568;BMP280;9930;49.240;8.548;2023-04-15T13:48:27;99819.16;;;18.53
19568;BMP280;9930;49.240;8.548;2023-04-15T13:50:55;99836.34;;;18.61
19568;BMP280;9930;49.240;8.548;2023-04-15T13:53:21;99841.50;;;18.60
19568;BMP280;9930;49.240;8.548;2023-04-15T13:55:47;99844.94;;;18.59
19568;BMP280;9930;49.240;8.548;2023-04-15T13:58:13;99845.81;;;18.55
19568;BMP280;9930;49.240;8.548;2023-04-15T14:00:41;99834.66;;;18.48
19568;BMP280;9930;49.240;8.548;2023-04-15T14:03:07;99844.97;;;18.53
19568;BMP280;9930;49.240;8.548;2023-04-15T14:05:33;99847.53;;;18.56
19568;BMP280;9930;49.240;8.548;2023-04-15T14:07:59;99850.97;;;18.58
19568;BMP280;9930;49.240;8.548;2023-04-15T14:10:27;99844.97;;;18.51
19568;BMP280;9930;49.240;8.548;2023-04-15T14:12:56;99847.53;;;18.54
19568;BMP280;9930;49.240;8.548;2023-04-15T14:15:22;99864.75;;;18.60
19568;BMP280;9930;49.240;8.548;2023-04-15T14:17:50;99866.47;;;18.59
19568;BMP280;9930;49.240;8.548;2023-04-15T14:20:18;99846.72;;;18.43
19568;BMP280;9930;49.240;8.548;2023-04-15T14:22:44;99872.50;;;18.57
19568;BMP280;9930;49.240;8.548;2023-04-15T14:25:12;99871.63;;;18.58
19568;BMP280;9930;49.240;8.548;2023-04-15T14:27:37;99865.63;;;18.56
19568;BMP280;9930;49.240;8.548;2023-04-15T14:30:04;99865.63;;;18.62
19568;BMP280;9930;49.240;8.548;2023-04-15T14:32:30;99875.09;;;18.66
19568;BMP280;9930;49.240;8.548;2023-04-15T14:34:55;99878.53;;;18.65
19568;BMP280;9930;49.240;8.548;2023-04-15T14:37:26;99893.16;;;18.72
19568;BMP280;9930;49.240;8.548;2023-04-15T14:39:52;99885.38;;;18.72
19568;BMP280;9930;49.240;8.548;2023-04-15T14:42:18;99888.84;;;18.72
19568;BMP280;9930;49.240;8.548;2023-04-15T14:44:44;99889.72;;;18.70
19568;BMP280;9930;49.240;8.548;2023-04-15T14:47:11;99897.41;;;18.81
19568;BMP280;9930;49.240;8.548;2023-04-15T14:49:40;99903.41;;;18.86
19568;BMP280;9930;49.240;8.548;2023-04-15T14:52:06;99898.25;;;18.87